createdAt,value
2022-11-24T00:00:19.041Z,433.45
2022-11-24T00:00:51.586Z,438.48
2022-11-24T00:01:25.356Z,436.42
2022-11-24T00:01:57.763Z,448.13
2022-11-24T00:02:30.220Z,453.23
2022-11-24T00:03:04.976Z,448.98
2022-11-24T00:03:37.409Z,451.35
2022-11-24T00:04:11.831Z,439.52
2022-11-24T00:04:44.185Z,431.58
2022-11-24T00:05:16.520Z,430.38
2022-11-24T00:05:48.893Z,434.48
2022-11-24T00:06:21.492Z,438.10
2022-11-24T00:06:53.823Z,430.52
2022-11-24T00:07:26.617Z,438.98
2022-11-24T00:07:58.944Z,438.27
2022-11-24T00:08:31.301Z,437.63
2022-11-24T00:09:04.623Z,429.67
2022-11-24T00:09:36.904Z,424.42
2022-11-24T00:10:09.699Z,435.27
2022-11-24T00:10:42.074Z,428.50
2022-11-24T00:11:15.706Z,430.88
2022-11-24T00:11:48.101Z,434.52
2022-11-24T00:12:20.425Z,426.40
2022-11-24T00:12:52.736Z,428.30
2022-11-24T00:13:25.036Z,433.45
2022-11-24T00:13:57.873Z,436.50
2022-11-24T00:14:30.456Z,433.85
2022-11-24T00:15:02.944Z,427.42
2022-11-24T00:15:35.313Z,430.58
2022-11-24T00:16:07.795Z,443.15
2022-11-24T00:16:40.190Z,431.00
2022-11-24T00:17:12.631Z,432.92
2022-11-24T00:17:45.014Z,439.02
2022-11-24T00:18:17.343Z,429.63
2022-11-24T00:18:50.929Z,432.98
2022-11-24T00:19:23.265Z,433.45
2022-11-24T00:19:55.936Z,437.25
2022-11-24T00:20:28.278Z,447.45
2022-11-24T00:21:00.623Z,457.08
2022-11-24T00:21:33.211Z,443.33
2022-11-24T00:22:05.936Z,445.90
2022-11-24T00:22:38.443Z,442.48
2022-11-24T00:23:11.011Z,450.30
2022-11-24T00:23:43.984Z,444.83
2022-11-24T00:24:16.485Z,447.52
2022-11-24T00:24:48.988Z,441.38
2022-11-24T00:25:21.578Z,439.95
2022-11-24T00:25:53.891Z,433.73
2022-11-24T00:26:27.930Z,442.77
2022-11-24T00:27:00.314Z,443.65
2022-11-24T00:27:32.605Z,456.10
2022-11-24T00:28:04.969Z,472.40
2022-11-24T00:28:37.434Z,473.50
2022-11-24T00:29:11.295Z,471.40
2022-11-24T00:29:44.004Z,468.10
2022-11-24T00:30:16.418Z,450.02
2022-11-24T00:30:48.793Z,464.45
2022-11-24T00:31:22.674Z,448.92
2022-11-24T00:31:56.969Z,436.45
2022-11-24T00:32:30.026Z,422.55
2022-11-24T00:33:02.331Z,427.35
2022-11-24T00:33:34.770Z,424.50
2022-11-24T00:34:15.978Z,422.17
2022-11-24T00:34:48.429Z,427.30
2022-11-24T00:35:20.737Z,419.65
2022-11-24T00:35:56.598Z,427.05
2022-11-24T00:36:30.191Z,429.88
2022-11-24T00:37:02.487Z,427.38
2022-11-24T00:37:35.032Z,424.30
2022-11-24T00:38:07.393Z,434.75
2022-11-24T00:38:39.730Z,431.60
2022-11-24T00:39:12.873Z,433.63
2022-11-24T00:39:45.156Z,431.08
2022-11-24T00:40:17.536Z,422.48
2022-11-24T00:40:49.926Z,426.45
2022-11-24T00:41:22.319Z,432.38
2022-11-24T00:41:54.808Z,425.75
2022-11-24T00:42:27.099Z,426.90
2022-11-24T00:43:00.818Z,421.90
2022-11-24T00:43:33.531Z,428.30
2022-11-24T00:44:06.061Z,432.50
2022-11-24T00:44:38.469Z,425.60
2022-11-24T00:45:14.122Z,433.48
2022-11-24T00:45:47.214Z,419.88
2022-11-24T00:46:20.277Z,418.63
2022-11-24T00:46:52.788Z,422.65
2022-11-24T00:47:25.319Z,419.90
2022-11-24T00:47:57.620Z,421.55
2022-11-24T00:48:30.643Z,425.83
2022-11-24T00:49:02.957Z,416.77
2022-11-24T00:49:36.529Z,419.27
2022-11-24T00:50:09.191Z,425.55
2022-11-24T00:50:41.559Z,426.50
2022-11-24T00:51:14.868Z,425.88
2022-11-24T00:51:47.220Z,428.60
2022-11-24T00:52:19.507Z,422.67
2022-11-24T00:52:51.914Z,420.90
2022-11-24T00:53:24.538Z,422.33
2022-11-24T00:53:57.592Z,427.67
2022-11-24T00:54:30.253Z,422.13
2022-11-24T00:55:02.668Z,419.00
2022-11-24T00:55:35.055Z,414.00
2022-11-24T00:56:08.031Z,413.42
2022-11-24T00:56:40.392Z,412.17
2022-11-24T00:57:12.830Z,413.88
2022-11-24T00:57:45.368Z,420.05
2022-11-24T00:58:17.878Z,425.75
2022-11-24T00:58:50.800Z,423.48
2022-11-24T00:59:23.145Z,422.20
2022-11-24T00:59:55.601Z,417.85
2022-11-24T01:00:28.018Z,416.33
2022-11-24T01:01:04.874Z,424.80
2022-11-24T01:01:37.363Z,426.67
2022-11-24T01:02:09.826Z,419.75
2022-11-24T01:02:42.283Z,429.73
2022-11-24T01:03:14.783Z,420.50
2022-11-24T01:03:47.650Z,419.08
2022-11-24T01:04:20.164Z,420.13
2022-11-24T01:04:52.454Z,423.45
2022-11-24T01:05:24.795Z,422.00
2022-11-24T01:05:57.257Z,421.42
2022-11-24T01:06:30.320Z,425.60
2022-11-24T01:07:02.639Z,416.63
2022-11-24T01:07:35.035Z,416.73
2022-11-24T01:08:08.403Z,419.85
2022-11-24T01:08:41.308Z,418.08
2022-11-24T01:09:14.076Z,421.08
2022-11-24T01:09:46.371Z,422.67
2022-11-24T01:10:18.724Z,421.50
2022-11-24T01:10:51.295Z,424.50
2022-11-24T01:11:27.624Z,421.65
2022-11-24T01:12:02.837Z,428.80
2022-11-24T01:12:35.513Z,414.77
2022-11-24T01:13:08.282Z,415.58
2022-11-24T01:13:41.260Z,413.98
2022-11-24T01:14:13.524Z,415.85
2022-11-24T01:14:45.827Z,420.08
2022-11-24T01:15:18.193Z,420.05
2022-11-24T01:15:50.615Z,419.58
2022-11-24T01:16:25.100Z,419.38
2022-11-24T01:16:57.729Z,419.50
2022-11-24T01:17:30.028Z,425.13
2022-11-24T01:18:02.680Z,421.13
2022-11-24T01:18:35.477Z,424.42
2022-11-24T01:19:07.838Z,431.17
2022-11-24T01:19:40.135Z,432.45
2022-11-24T01:20:12.719Z,426.65
2022-11-24T01:20:45.018Z,424.63
2022-11-24T01:21:17.743Z,422.40
2022-11-24T01:21:50.511Z,428.55
2022-11-24T01:22:22.858Z,422.95
2022-11-24T01:22:55.279Z,429.67
2022-11-24T01:23:27.586Z,420.17
2022-11-24T01:23:59.939Z,427.60
2022-11-24T01:24:32.641Z,428.40
2022-11-24T01:25:08.743Z,419.48
2022-11-24T01:25:41.045Z,417.85
2022-11-24T01:26:15.159Z,417.10
2022-11-24T01:26:47.467Z,418.92
2022-11-24T01:27:20.090Z,423.10
2022-11-24T01:27:52.780Z,427.45
2022-11-24T01:28:25.326Z,429.38
2022-11-24T01:28:58.405Z,430.00
2022-11-24T01:29:30.757Z,416.45
2022-11-24T01:30:03.181Z,421.30
2022-11-24T01:30:36.234Z,414.42
2022-11-24T01:31:08.939Z,414.90
2022-11-24T01:31:41.404Z,418.73
2022-11-24T01:32:13.755Z,426.48
2022-11-24T01:32:46.135Z,428.13
2022-11-24T01:33:18.469Z,418.90
2022-11-24T01:33:50.777Z,415.67
2022-11-24T01:34:23.167Z,413.38
2022-11-24T01:34:55.785Z,417.70
2022-11-24T01:35:28.180Z,425.15
2022-11-24T01:36:00.770Z,425.67
2022-11-24T01:36:33.416Z,428.13
2022-11-24T01:37:05.693Z,412.15
2022-11-24T01:37:37.981Z,417.30
2022-11-24T01:38:10.304Z,420.85
2022-11-24T01:38:43.102Z,413.02
2022-11-24T01:39:15.387Z,418.75
2022-11-24T01:39:47.776Z,415.25
2022-11-24T01:40:20.312Z,421.90
2022-11-24T01:41:06.027Z,425.65
2022-11-24T01:41:38.332Z,433.45
2022-11-24T01:42:11.089Z,422.98
2022-11-24T01:42:47.156Z,416.35
2022-11-24T01:43:21.633Z,415.35
2022-11-24T01:43:54.967Z,417.92
2022-11-24T01:44:28.752Z,427.23
2022-11-24T01:45:19.723Z,429.50
2022-11-24T01:45:52.019Z,423.48
2022-11-24T01:46:42.143Z,423.52
2022-11-24T01:47:46.625Z,408.23
2022-11-24T01:48:27.805Z,406.98
2022-11-24T01:49:06.735Z,411.20
2022-11-24T01:49:44.703Z,411.67
2022-11-24T01:50:17.789Z,408.52
2022-11-24T01:50:54.140Z,413.75
2022-11-24T01:51:28.441Z,412.88
2022-11-24T01:52:13.610Z,412.45
2022-11-24T01:52:49.421Z,408.35
2022-11-24T01:53:22.684Z,418.63
2022-11-24T01:53:59.218Z,415.60
2022-11-24T01:54:33.875Z,421.27
2022-11-24T01:55:08.620Z,424.50
2022-11-24T01:55:41.533Z,425.42
2022-11-24T01:56:14.588Z,417.52
2022-11-24T01:56:49.259Z,418.70
2022-11-24T01:57:22.270Z,424.67
2022-11-24T01:57:54.612Z,430.20
2022-11-24T01:58:29.462Z,420.23
2022-11-24T01:59:02.824Z,418.23
2022-11-24T01:59:35.337Z,417.05
2022-11-24T02:00:09.978Z,420.48
2022-11-24T02:00:50.092Z,415.55
2022-11-24T02:01:23.049Z,416.50
2022-11-24T02:01:56.601Z,419.85
2022-11-24T02:02:30.044Z,429.73
2022-11-24T02:03:02.644Z,432.38
2022-11-24T02:03:36.944Z,420.90
2022-11-24T02:04:11.076Z,422.80
2022-11-24T02:04:44.440Z,414.88
2022-11-24T02:05:39.941Z,416.63
2022-11-24T02:06:13.390Z,408.70
2022-11-24T02:06:46.755Z,413.33
2022-11-24T02:07:19.091Z,413.88
2022-11-24T02:07:53.964Z,423.83
2022-11-24T02:08:30.063Z,418.17
2022-11-24T02:09:11.776Z,420.63
2022-11-24T02:09:49.862Z,419.67
2022-11-24T02:10:22.934Z,420.02
2022-11-24T02:10:55.311Z,409.08
2022-11-24T02:11:29.927Z,409.73
2022-11-24T02:12:02.757Z,412.10
2022-11-24T02:12:35.779Z,414.20
2022-11-24T02:13:08.179Z,414.30
2022-11-24T02:13:41.363Z,415.20
2022-11-24T02:14:14.979Z,418.17
2022-11-24T02:14:47.317Z,422.73
2022-11-24T02:15:20.371Z,410.77
2022-11-24T02:15:53.376Z,411.27
2022-11-24T02:16:25.807Z,417.02
2022-11-24T02:16:58.439Z,415.38
2022-11-24T02:17:30.844Z,409.38
2022-11-24T02:18:03.463Z,417.40
2022-11-24T02:18:37.086Z,419.35
2022-11-24T02:19:18.538Z,416.80
2022-11-24T02:19:58.654Z,413.40
2022-11-24T02:20:31.044Z,407.58
2022-11-24T02:21:03.362Z,409.50
2022-11-24T02:21:35.725Z,407.58
2022-11-24T02:22:12.415Z,411.40
2022-11-24T02:22:50.785Z,409.92
2022-11-24T02:23:41.900Z,418.67
2022-11-24T02:24:33.072Z,416.50
2022-11-24T02:25:14.952Z,397.42
2022-11-24T02:26:02.573Z,403.85
2022-11-24T02:26:34.889Z,404.17
2022-11-24T02:27:07.475Z,411.52
2022-11-24T02:27:40.082Z,412.92
2022-11-24T02:28:17.700Z,415.70
2022-11-24T02:28:50.838Z,418.08
2022-11-24T02:29:23.326Z,412.63
2022-11-24T02:29:55.693Z,413.25
2022-11-24T02:30:28.168Z,415.48
2022-11-24T02:31:00.957Z,422.35
2022-11-24T02:31:33.695Z,418.98
2022-11-24T02:32:06.944Z,418.10
2022-11-24T02:32:40.429Z,421.20
2022-11-24T02:33:13.263Z,419.15
2022-11-24T02:33:45.805Z,418.52
2022-11-24T02:34:18.136Z,422.08
2022-11-24T02:34:50.775Z,419.75
2022-11-24T02:35:23.174Z,416.80
2022-11-24T02:35:55.444Z,429.80
2022-11-24T02:36:27.990Z,411.60
2022-11-24T02:37:00.329Z,414.52
2022-11-24T02:37:32.661Z,415.75
2022-11-24T02:38:05.400Z,411.63
2022-11-24T02:38:37.717Z,421.15
2022-11-24T02:39:11.654Z,418.15
2022-11-24T02:39:43.961Z,421.58
2022-11-24T02:40:18.811Z,417.05
2022-11-24T02:40:51.340Z,416.48
2022-11-24T02:41:25.614Z,420.20
2022-11-24T02:42:00.593Z,413.83
2022-11-24T02:42:36.495Z,413.33
2022-11-24T02:43:11.295Z,417.50
2022-11-24T02:43:45.855Z,418.95
2022-11-24T02:44:20.332Z,434.30
2022-11-24T02:44:55.165Z,424.42
2022-11-24T02:45:28.376Z,412.95
2022-11-24T02:46:00.829Z,420.02
2022-11-24T02:46:33.381Z,414.42
2022-11-24T02:47:06.884Z,414.60
2022-11-24T02:47:39.593Z,419.02
2022-11-24T02:48:12.037Z,418.27
2022-11-24T02:48:44.394Z,419.77
2022-11-24T02:49:16.767Z,416.17
2022-11-24T02:49:49.491Z,437.90
2022-11-24T02:50:21.772Z,427.27
2022-11-24T02:50:54.183Z,433.75
2022-11-24T02:51:26.620Z,425.15
2022-11-24T02:51:59.389Z,434.35
2022-11-24T02:52:31.749Z,430.95
2022-11-24T02:53:04.516Z,427.98
2022-11-24T02:53:37.040Z,427.48
2022-11-24T02:54:09.489Z,423.75
2022-11-24T02:54:42.012Z,419.15
2022-11-24T02:55:14.337Z,420.35
2022-11-24T02:55:46.875Z,427.25
2022-11-24T02:56:19.278Z,439.08
2022-11-24T02:56:51.882Z,428.10
2022-11-24T02:57:24.184Z,423.45
2022-11-24T02:57:56.490Z,423.30
2022-11-24T02:58:28.827Z,421.85
2022-11-24T02:59:01.152Z,418.88
2022-11-24T02:59:33.591Z,418.38
2022-11-24T03:00:06.192Z,419.17
2022-11-24T03:00:38.561Z,421.55
2022-11-24T03:01:11.178Z,415.83
2022-11-24T03:01:43.597Z,414.67
2022-11-24T03:02:15.966Z,417.17
2022-11-24T03:02:48.597Z,421.05
2022-11-24T03:03:21.661Z,416.20
2022-11-24T03:03:54.454Z,428.48
2022-11-24T03:04:26.897Z,421.60
2022-11-24T03:04:59.251Z,417.70
2022-11-24T03:05:31.611Z,422.77
2022-11-24T03:06:03.931Z,415.02
2022-11-24T03:06:36.353Z,423.17
2022-11-24T03:07:08.724Z,422.60
2022-11-24T03:07:41.399Z,425.73
2022-11-24T03:08:13.711Z,416.02
2022-11-24T03:08:46.037Z,418.67
2022-11-24T03:09:18.420Z,420.75
2022-11-24T03:09:51.188Z,414.35
2022-11-24T03:10:24.643Z,414.40
2022-11-24T03:10:57.387Z,422.27
2022-11-24T03:11:29.668Z,413.05
2022-11-24T03:12:02.040Z,417.55
2022-11-24T03:12:34.452Z,421.05
2022-11-24T03:13:06.889Z,415.00
2022-11-24T03:13:39.239Z,424.33
2022-11-24T03:14:11.583Z,431.02
2022-11-24T03:14:43.998Z,416.60
2022-11-24T03:15:16.396Z,419.17
2022-11-24T03:15:48.989Z,419.27
2022-11-24T03:16:21.673Z,414.75
2022-11-24T03:16:54.032Z,422.98
2022-11-24T03:17:26.830Z,431.58
2022-11-24T03:17:59.330Z,425.98
2022-11-24T03:18:31.647Z,419.02
2022-11-24T03:19:04.488Z,418.02
2022-11-24T03:19:37.296Z,417.95
2022-11-24T03:20:09.991Z,422.40
2022-11-24T03:20:42.279Z,422.17
2022-11-24T03:21:14.634Z,417.40
2022-11-24T03:21:46.979Z,428.65
2022-11-24T03:22:19.297Z,426.60
2022-11-24T03:22:52.195Z,422.75
2022-11-24T03:23:24.511Z,421.70
2022-11-24T03:23:56.799Z,431.50
2022-11-24T03:24:29.121Z,428.48
2022-11-24T03:25:01.934Z,429.33
2022-11-24T03:25:34.401Z,424.88
2022-11-24T03:26:13.812Z,427.13
2022-11-24T03:26:46.159Z,427.13
2022-11-24T03:27:18.488Z,432.55
2022-11-24T03:27:51.376Z,426.77
2022-11-24T03:28:23.726Z,417.80
2022-11-24T03:28:56.505Z,414.67
2022-11-24T03:29:29.297Z,419.35
2022-11-24T03:30:01.772Z,429.80
2022-11-24T03:30:34.175Z,413.40
2022-11-24T03:31:07.134Z,428.25
2022-11-24T03:31:39.528Z,420.00
2022-11-24T03:32:12.024Z,418.20
2022-11-24T03:32:44.413Z,413.10
2022-11-24T03:33:16.699Z,424.50
2022-11-24T03:33:49.100Z,422.52
2022-11-24T03:34:21.355Z,417.05
2022-11-24T03:34:53.677Z,413.25
2022-11-24T03:35:26.254Z,421.27
2022-11-24T03:35:58.568Z,418.88
2022-11-24T03:36:30.964Z,420.27
2022-11-24T03:37:03.382Z,420.70
2022-11-24T03:37:35.751Z,427.50
2022-11-24T03:38:08.272Z,426.48
2022-11-24T03:38:40.618Z,420.60
2022-11-24T03:39:13.219Z,420.40
2022-11-24T03:39:45.529Z,414.10
2022-11-24T03:40:18.315Z,414.55
2022-11-24T03:40:50.654Z,415.17
2022-11-24T03:41:22.966Z,410.40
2022-11-24T03:41:55.333Z,411.65
2022-11-24T03:42:27.625Z,410.23
2022-11-24T03:42:59.939Z,409.58
2022-11-24T03:43:32.287Z,410.15
2022-11-24T03:44:04.719Z,412.77
2022-11-24T03:44:37.229Z,412.58
2022-11-24T03:45:38.469Z,413.42
2022-11-24T03:46:02.288Z,425.30
2022-11-24T03:46:34.761Z,430.48
2022-11-24T03:47:07.252Z,419.67
2022-11-24T03:47:40.233Z,430.30
2022-11-24T03:48:13.024Z,419.33
2022-11-24T03:48:45.446Z,416.60
2022-11-24T03:49:17.999Z,420.52
2022-11-24T03:49:50.373Z,421.80
2022-11-24T03:50:22.695Z,422.17
2022-11-24T03:50:56.307Z,427.05
2022-11-24T03:51:28.636Z,427.25
2022-11-24T03:52:06.528Z,424.33
2022-11-24T03:52:40.399Z,417.67
2022-11-24T03:53:12.786Z,413.02
2022-11-24T03:53:45.087Z,415.08
2022-11-24T03:54:17.660Z,411.85
2022-11-24T03:54:50.004Z,417.70
2022-11-24T03:55:22.319Z,418.95
2022-11-24T03:55:54.867Z,431.75
2022-11-24T03:56:28.028Z,427.00
2022-11-24T03:57:00.316Z,418.15
2022-11-24T03:57:32.740Z,415.38
2022-11-24T03:58:05.057Z,422.65
2022-11-24T03:58:37.382Z,430.65
2022-11-24T03:59:09.671Z,424.55
2022-11-24T03:59:42.492Z,423.33
2022-11-24T04:00:15.184Z,414.52
2022-11-24T04:00:51.005Z,421.85
2022-11-24T04:01:23.537Z,413.60
2022-11-24T04:01:56.228Z,419.27
2022-11-24T04:02:28.980Z,419.95
2022-11-24T04:03:01.502Z,427.15
2022-11-24T04:03:33.966Z,420.15
2022-11-24T04:04:06.247Z,423.45
2022-11-24T04:04:38.536Z,427.00
2022-11-24T04:05:10.993Z,414.98
2022-11-24T04:05:43.360Z,430.17
2022-11-24T04:06:15.901Z,432.40
2022-11-24T04:06:48.311Z,427.02
2022-11-24T04:07:20.663Z,431.67
2022-11-24T04:07:55.484Z,423.60
2022-11-24T04:08:27.980Z,430.55
2022-11-24T04:09:00.702Z,428.30
2022-11-24T04:09:33.008Z,423.48
2022-11-24T04:10:05.681Z,423.42
2022-11-24T04:10:38.493Z,421.65
2022-11-24T04:11:30.776Z,422.45
2022-11-24T04:12:21.396Z,427.67
2022-11-24T04:12:53.687Z,419.58
2022-11-24T04:13:26.476Z,432.02
2022-11-24T04:13:58.754Z,427.63
2022-11-24T04:14:31.232Z,426.08
2022-11-24T04:15:03.779Z,425.25
2022-11-24T04:15:37.948Z,443.65
2022-11-24T04:16:10.306Z,429.65
2022-11-24T04:16:42.825Z,428.55
2022-11-24T04:17:15.226Z,425.38
2022-11-24T04:17:48.336Z,415.08
2022-11-24T04:18:21.037Z,414.75
2022-11-24T04:18:53.782Z,416.17
2022-11-24T04:19:26.161Z,421.23
2022-11-24T04:19:58.445Z,415.52
2022-11-24T04:20:30.822Z,438.15
2022-11-24T04:21:03.353Z,434.42
2022-11-24T04:21:35.639Z,438.85
2022-11-24T04:22:07.907Z,439.55
2022-11-24T04:22:40.499Z,434.70
2022-11-24T04:23:12.840Z,438.13
2022-11-24T04:23:45.141Z,436.85
2022-11-24T04:24:17.558Z,433.30
2022-11-24T04:24:49.862Z,450.15
2022-11-24T04:25:22.160Z,443.45
2022-11-24T04:25:55.947Z,434.52
2022-11-24T04:26:28.256Z,442.10
2022-11-24T04:27:00.730Z,444.98
2022-11-24T04:27:33.744Z,437.40
2022-11-24T04:28:06.167Z,444.50
2022-11-24T04:28:38.780Z,437.80
2022-11-24T04:29:11.340Z,443.08
2022-11-24T04:29:43.749Z,443.98
2022-11-24T04:30:16.202Z,443.55
2022-11-24T04:30:48.882Z,433.33
2022-11-24T04:31:21.408Z,435.23
2022-11-24T04:31:53.802Z,437.33
2022-11-24T04:32:26.191Z,440.48
2022-11-24T04:32:58.573Z,438.48
2022-11-24T04:33:30.875Z,440.73
2022-11-24T04:34:03.439Z,437.42
2022-11-24T04:34:36.309Z,435.50
2022-11-24T04:35:08.973Z,440.73
2022-11-24T04:35:41.280Z,444.25
2022-11-24T04:36:13.658Z,443.23
2022-11-24T04:36:46.175Z,437.30
2022-11-24T04:37:18.496Z,435.08
2022-11-24T04:37:50.891Z,435.10
2022-11-24T04:39:22.852Z,457.80
2022-11-24T04:39:24.793Z,436.52
2022-11-24T04:39:58.521Z,448.95
2022-11-24T04:40:30.943Z,439.80
2022-11-24T04:41:04.294Z,439.40
2022-11-24T04:41:36.616Z,437.35
2022-11-24T04:42:09.015Z,442.17
2022-11-24T04:42:41.344Z,443.70
2022-11-24T04:43:14.061Z,436.83
2022-11-24T04:43:48.745Z,444.63
2022-11-24T04:44:21.063Z,434.50
2022-11-24T04:44:53.379Z,432.33
2022-11-24T04:45:25.758Z,428.77
2022-11-24T04:46:01.711Z,438.02
2022-11-24T04:46:34.093Z,439.77
2022-11-24T04:47:06.853Z,434.42
2022-11-24T04:47:39.450Z,438.67
2022-11-24T04:48:12.164Z,433.65
2022-11-24T04:48:44.464Z,438.40
2022-11-24T04:49:17.050Z,440.23
2022-11-24T04:49:49.797Z,444.65
2022-11-24T04:50:22.226Z,433.98
2022-11-24T04:50:54.980Z,437.58
2022-11-24T04:51:27.543Z,440.85
2022-11-24T04:51:59.836Z,431.55
2022-11-24T04:52:32.172Z,430.17
2022-11-24T04:53:04.948Z,431.20
2022-11-24T04:53:37.466Z,441.85
2022-11-24T04:54:11.318Z,429.45
2022-11-24T04:54:43.916Z,433.42
2022-11-24T04:55:16.229Z,430.65
2022-11-24T04:55:48.613Z,426.65
2022-11-24T04:56:20.995Z,431.70
2022-11-24T04:56:53.399Z,431.10
2022-11-24T04:57:26.418Z,434.30
2022-11-24T04:57:58.655Z,429.13
2022-11-24T04:58:30.975Z,438.98
2022-11-24T04:59:07.962Z,429.52
2022-11-24T04:59:40.860Z,432.42
2022-11-24T05:00:13.507Z,436.67
2022-11-24T05:00:46.004Z,433.27
2022-11-24T05:01:18.347Z,436.77
2022-11-24T05:01:50.899Z,441.88
2022-11-24T05:02:23.658Z,435.73
2022-11-24T05:02:56.018Z,441.05
2022-11-24T05:03:28.297Z,436.92
2022-11-24T05:04:00.553Z,434.27
2022-11-24T05:04:33.055Z,434.42
2022-11-24T05:05:06.092Z,437.40
2022-11-24T05:05:38.649Z,433.92
2022-11-24T05:06:10.984Z,431.08
2022-11-24T05:06:43.472Z,437.55
2022-11-24T05:07:18.673Z,436.42
2022-11-24T05:07:51.718Z,446.90
2022-11-24T05:08:24.166Z,447.13
2022-11-24T05:08:56.941Z,435.50
2022-11-24T05:09:48.187Z,444.70
2022-11-24T05:10:36.766Z,448.73
2022-11-24T05:11:09.339Z,440.05
2022-11-24T05:11:42.069Z,442.25
2022-11-24T05:12:14.319Z,443.48
2022-11-24T05:12:53.962Z,441.05
2022-11-24T05:13:26.279Z,445.77
2022-11-24T05:13:58.621Z,439.23
2022-11-24T05:14:30.985Z,442.77
2022-11-24T05:15:04.414Z,440.17
2022-11-24T05:15:40.113Z,440.35
2022-11-24T05:16:12.755Z,452.25
2022-11-24T05:16:45.086Z,451.83
2022-11-24T05:17:17.295Z,446.88
2022-11-24T05:17:49.742Z,450.58
2022-11-24T05:18:22.450Z,457.35
2022-11-24T05:18:54.751Z,468.65
2022-11-24T05:19:32.224Z,445.02
2022-11-24T05:20:06.180Z,455.92
2022-11-24T05:20:38.916Z,457.17
2022-11-24T05:21:11.187Z,457.17
2022-11-24T05:21:43.517Z,457.38
2022-11-24T05:22:15.941Z,453.55
2022-11-24T05:22:48.187Z,460.40
2022-11-24T05:23:20.437Z,465.13
2022-11-24T05:23:52.753Z,459.13
2022-11-24T05:24:25.064Z,450.00
2022-11-24T05:24:57.496Z,458.73
2022-11-24T05:25:29.984Z,450.17
2022-11-24T05:26:02.304Z,456.27
2022-11-24T05:26:35.839Z,450.73
2022-11-24T05:27:08.163Z,450.38
2022-11-24T05:27:40.957Z,454.75
2022-11-24T05:28:13.301Z,450.27
2022-11-24T05:28:45.648Z,462.48
2022-11-24T05:29:17.982Z,454.20
2022-11-24T05:29:50.351Z,454.02
2022-11-24T05:30:22.669Z,456.08
2022-11-24T05:30:54.999Z,452.88
2022-11-24T05:31:27.329Z,453.10
2022-11-24T05:31:59.667Z,452.83
2022-11-24T05:32:32.025Z,449.67
2022-11-24T05:33:05.864Z,446.70
2022-11-24T05:33:38.469Z,449.88
2022-11-24T05:34:10.990Z,450.05
2022-11-24T05:34:43.496Z,447.42
2022-11-24T05:35:16.167Z,445.48
2022-11-24T05:35:52.080Z,441.02
2022-11-24T05:36:42.842Z,447.40
2022-11-24T05:37:15.073Z,447.73
2022-11-24T05:37:47.785Z,443.35
2022-11-24T05:38:21.273Z,446.00
2022-11-24T05:38:53.535Z,445.05
2022-11-24T05:39:25.862Z,451.00
2022-11-24T05:39:58.153Z,443.05
2022-11-24T05:40:31.221Z,463.88
2022-11-24T05:41:04.365Z,459.38
2022-11-24T05:41:36.700Z,462.13
2022-11-24T05:42:27.574Z,450.42
2022-11-24T05:42:59.869Z,450.77
2022-11-24T05:43:32.282Z,448.42
2022-11-24T05:44:04.598Z,454.30
2022-11-24T05:44:36.926Z,464.55
2022-11-24T05:45:12.312Z,457.85
2022-11-24T05:45:44.975Z,443.77
2022-11-24T05:46:17.427Z,450.05
2022-11-24T05:46:49.847Z,451.35
2022-11-24T05:47:22.626Z,445.67
2022-11-24T05:47:55.147Z,445.80
2022-11-24T05:48:27.796Z,440.75
2022-11-24T05:49:00.099Z,439.63
2022-11-24T05:49:32.387Z,444.92
2022-11-24T05:50:04.724Z,443.55
2022-11-24T05:50:37.175Z,447.00
2022-11-24T05:51:09.646Z,441.67
2022-11-24T05:51:42.381Z,442.35
2022-11-24T05:52:14.652Z,440.88
2022-11-24T05:52:46.971Z,441.40
2022-11-24T05:53:19.172Z,442.58
2022-11-24T05:53:51.585Z,443.90
2022-11-24T05:54:24.099Z,446.30
2022-11-24T05:54:56.390Z,446.20
2022-11-24T05:55:28.661Z,446.10
2022-11-24T05:56:04.229Z,446.45
2022-11-24T05:56:36.516Z,442.98
2022-11-24T05:57:08.857Z,448.33
2022-11-24T05:57:41.127Z,439.83
2022-11-24T05:58:13.594Z,442.02
2022-11-24T05:58:45.862Z,441.90
2022-11-24T05:59:18.122Z,442.70
2022-11-24T05:59:50.475Z,437.45
2022-11-24T06:00:22.828Z,442.27
2022-11-24T06:00:55.153Z,447.25
2022-11-24T06:01:27.822Z,438.63
2022-11-24T06:02:00.333Z,439.42
2022-11-24T06:02:32.851Z,444.30
2022-11-24T06:03:05.314Z,440.02
2022-11-24T06:03:37.632Z,449.63
2022-11-24T06:04:10.332Z,443.80
2022-11-24T06:04:42.841Z,442.17
2022-11-24T06:05:15.204Z,444.20
2022-11-24T06:05:47.750Z,441.10
2022-11-24T06:06:20.066Z,442.15
2022-11-24T06:06:52.492Z,441.95
2022-11-24T06:07:25.043Z,439.23
2022-11-24T06:07:58.897Z,448.48
2022-11-24T06:08:31.574Z,444.63
2022-11-24T06:09:05.055Z,444.63
2022-11-24T06:09:38.263Z,443.00
2022-11-24T06:10:10.728Z,451.52
2022-11-24T06:10:43.517Z,443.38
2022-11-24T06:11:18.354Z,440.48
2022-11-24T06:11:50.580Z,442.98
2022-11-24T06:12:22.819Z,449.00
2022-11-24T06:12:55.083Z,455.85
2022-11-24T06:13:27.683Z,443.20
2022-11-24T06:14:00.144Z,444.80
2022-11-24T06:14:32.948Z,448.33
2022-11-24T06:15:05.783Z,446.60
2022-11-24T06:15:38.757Z,443.05
2022-11-24T06:16:11.271Z,446.13
2022-11-24T06:16:43.586Z,439.83
2022-11-24T06:17:16.089Z,437.13
2022-11-24T06:17:55.285Z,443.80
2022-11-24T06:18:28.258Z,442.90
2022-11-24T06:19:00.552Z,443.20
2022-11-24T06:19:32.874Z,443.92
2022-11-24T06:20:06.580Z,446.67
2022-11-24T06:20:38.891Z,447.08
2022-11-24T06:21:12.168Z,436.33
2022-11-24T06:21:44.563Z,441.42
2022-11-24T06:22:17.824Z,448.48
2022-11-24T06:22:50.127Z,448.70
2022-11-24T06:23:22.368Z,449.35
2022-11-24T06:23:54.620Z,453.52
2022-11-24T06:24:26.854Z,453.27
2022-11-24T06:24:59.354Z,454.67
2022-11-24T06:25:31.965Z,451.17
2022-11-24T06:26:04.324Z,441.27
2022-11-24T06:26:36.586Z,446.20
2022-11-24T06:27:09.046Z,463.00
2022-11-24T06:27:41.352Z,458.58
2022-11-24T06:28:13.675Z,468.02
2022-11-24T06:28:46.094Z,465.42
2022-11-24T06:29:18.366Z,466.35
2022-11-24T06:29:50.676Z,477.35
2022-11-24T06:30:22.943Z,465.80
2022-11-24T06:30:55.441Z,465.13
2022-11-24T06:31:27.700Z,468.50
2022-11-24T06:32:00.217Z,471.58
2022-11-24T06:32:32.534Z,469.05
2022-11-24T06:33:04.793Z,474.40
2022-11-24T06:33:38.091Z,472.45
2022-11-24T06:34:11.817Z,467.63
2022-11-24T06:34:44.147Z,473.33
2022-11-24T06:35:16.732Z,453.85
2022-11-24T06:35:49.055Z,456.25
2022-11-24T06:36:21.528Z,462.75
2022-11-24T06:36:53.761Z,460.08
2022-11-24T06:37:26.400Z,463.70
2022-11-24T06:37:58.685Z,457.50
2022-11-24T06:38:31.928Z,463.45
2022-11-24T06:39:04.760Z,457.13
2022-11-24T06:39:37.838Z,457.52
2022-11-24T06:40:10.658Z,461.30
2022-11-24T06:40:42.927Z,451.00
2022-11-24T06:41:16.393Z,452.95
2022-11-24T06:41:51.917Z,456.83
2022-11-24T06:42:24.184Z,461.13
2022-11-24T06:42:56.514Z,461.58
2022-11-24T06:43:29.442Z,460.63
2022-11-24T06:44:05.151Z,460.67
2022-11-24T06:44:37.463Z,454.10
2022-11-24T06:45:10.020Z,454.02
2022-11-24T06:45:42.318Z,449.48
2022-11-24T06:46:14.770Z,461.27
2022-11-24T06:46:47.161Z,462.17
2022-11-24T06:47:19.496Z,458.60
2022-11-24T06:47:55.274Z,448.17
2022-11-24T06:48:27.678Z,450.58
2022-11-24T06:49:00.336Z,459.73
2022-11-24T06:49:32.653Z,450.48
2022-11-24T06:50:05.162Z,456.73
2022-11-24T06:50:37.799Z,460.38
2022-11-24T06:51:11.151Z,461.45
2022-11-24T06:51:43.491Z,468.98
2022-11-24T06:52:15.796Z,463.98
2022-11-24T06:52:48.158Z,465.63
2022-11-24T06:53:20.705Z,462.30
2022-11-24T06:53:52.977Z,468.98
2022-11-24T06:54:25.253Z,463.60
2022-11-24T06:54:57.625Z,471.52
2022-11-24T06:55:29.882Z,455.13
2022-11-24T06:56:02.415Z,466.05